createdAt,value
2024-04-05T00:00:53.608Z,99455.05
2024-04-05T00:03:39.947Z,99456.23
2024-04-05T00:06:05.188Z,99456.41
2024-04-05T00:08:34.594Z,99456.80
2024-04-05T00:11:01.120Z,99453.11
2024-04-05T00:13:26.119Z,99450.99
2024-04-05T00:15:53.270Z,99455.71
2024-04-05T00:18:20.418Z,99462.83
2024-04-05T00:20:46.796Z,99471.56
2024-04-05T00:23:11.750Z,99477.02
2024-04-05T00:25:38.739Z,99486.46
2024-04-05T00:28:05.754Z,99492.65
2024-04-05T00:30:32.174Z,99483.95
2024-04-05T00:32:58.714Z,99488.19
2024-04-05T00:35:25.368Z,99489.14
2024-04-05T00:37:51.903Z,99483.11
2024-04-05T00:40:18.627Z,99482.84
2024-04-05T00:42:45.167Z,99482.95
2024-04-05T00:45:11.833Z,99483.69
2024-04-05T00:47:38.728Z,99487.38
2024-04-05T00:50:08.171Z,99483.17
2024-04-05T00:52:35.115Z,99479.79
2024-04-05T00:55:02.248Z,99476.79
2024-04-05T00:57:29.293Z,99471.89
2024-04-05T00:59:56.451Z,99472.75
2024-04-05T01:02:23.082Z,99469.69
2024-04-05T01:04:49.516Z,99477.11
2024-04-05T01:07:16.057Z,99483.58
2024-04-05T01:09:42.591Z,99488.09
2024-04-05T01:12:10.082Z,99488.96
2024-04-05T01:14:36.697Z,99489.45
2024-04-05T01:17:03.144Z,99492.05
2024-04-05T01:19:32.936Z,99495.73
2024-04-05T01:22:01.954Z,99501.02
2024-04-05T01:24:28.881Z,99502.46
2024-04-05T01:26:55.412Z,99502.84
2024-04-05T01:29:21.960Z,99505.80
2024-04-05T01:31:48.288Z,99506.55
2024-04-05T01:34:15.629Z,99511.17
2024-04-05T01:36:41.987Z,99510.01
2024-04-05T01:39:06.971Z,99511.81
2024-04-05T01:41:35.342Z,99511.95
2024-04-05T01:44:03.670Z,99510.39
2024-04-05T01:46:30.148Z,99509.73
2024-04-05T01:48:56.688Z,99509.64
2024-04-05T01:51:23.550Z,99516.86
2024-04-05T01:53:50.068Z,99520.72
2024-04-05T01:56:16.599Z,99520.98
2024-04-05T01:58:44.386Z,99522.45
2024-04-05T02:01:10.840Z,99526.34
2024-04-05T02:03:35.906Z,99524.98
2024-04-05T02:06:02.394Z,99535.16
2024-04-05T02:08:27.437Z,99530.91
2024-04-05T02:10:53.857Z,99533.45
2024-04-05T02:13:20.412Z,99533.85
2024-04-05T02:15:49.237Z,99535.42
2024-04-05T02:18:15.732Z,99542.60
2024-04-05T02:20:44.418Z,99542.29
2024-04-05T02:23:11.102Z,99546.14
2024-04-05T02:25:37.468Z,99546.16
2024-04-05T02:28:02.419Z,99555.05
2024-04-05T02:30:28.924Z,99560.91
2024-04-05T02:32:55.492Z,99559.59
2024-04-05T02:35:22.204Z,99560.54
2024-04-05T02:37:49.088Z,99560.21
2024-04-05T02:40:15.921Z,99558.45
2024-04-05T02:42:42.529Z,99561.13
2024-04-05T02:45:09.909Z,99563.99
2024-04-05T02:47:36.313Z,99559.86
2024-04-05T02:50:01.326Z,99561.11
2024-04-05T02:52:27.986Z,99561.58
2024-04-05T02:54:54.323Z,99559.89
2024-04-05T02:57:19.254Z,99555.42
2024-04-05T02:59:46.047Z,99555.96
2024-04-05T03:02:13.350Z,99556.87
2024-04-05T03:04:39.740Z,99555.33
2024-04-05T03:07:06.787Z,99559.98
2024-04-05T03:09:34.027Z,99557.85
2024-04-05T03:12:00.754Z,99559.80
2024-04-05T03:14:27.914Z,99562.38
2024-04-05T03:16:55.232Z,99563.04
2024-04-05T03:19:21.808Z,99567.55
2024-04-05T03:21:48.227Z,99574.97
2024-04-05T03:24:14.598Z,99579.96
2024-04-05T03:26:40.409Z,99585.38
2024-04-05T03:29:07.284Z,99586.56
2024-04-05T03:31:34.172Z,99589.84
2024-04-05T03:34:00.604Z,99593.02
2024-04-05T03:36:27.032Z,99605.59
2024-04-05T03:38:52.197Z,99611.17
2024-04-05T03:41:18.773Z,99609.67
2024-04-05T03:43:45.555Z,99615.02
2024-04-05T03:46:12.255Z,99615.93
2024-04-05T03:48:38.789Z,99618.91
2024-04-05T03:51:05.665Z,99621.07
2024-04-05T03:53:32.105Z,99626.45
2024-04-05T03:55:57.616Z,99629.30
2024-04-05T03:58:24.118Z,99636.59
2024-04-05T04:00:54.989Z,99633.05
2024-04-05T04:03:21.793Z,99636.80
2024-04-05T04:05:48.321Z,99640.98
2024-04-05T04:08:15.383Z,99644.13
2024-04-05T04:10:43.430Z,99642.80
2024-04-05T04:13:10.251Z,99644.48
2024-04-05T04:15:37.864Z,99644.13
2024-04-05T04:18:04.599Z,99652.90
2024-04-05T04:20:31.242Z,99657.34
2024-04-05T04:22:57.768Z,99659.33
2024-04-05T04:25:24.201Z,99664.58
2024-04-05T04:27:51.369Z,99661.00
2024-04-05T04:30:18.000Z,99663.98
2024-04-05T04:32:44.538Z,99667.20
2024-04-05T04:35:11.726Z,99668.73
2024-04-05T04:37:38.292Z,99683.55
2024-04-05T04:40:05.712Z,99689.80
2024-04-05T04:42:32.204Z,99693.70
2024-04-05T04:44:59.099Z,99702.08
2024-04-05T04:47:28.251Z,99703.98
2024-04-05T04:49:56.274Z,99703.50
2024-04-05T04:52:23.911Z,99706.23
2024-04-05T04:54:51.067Z,99711.47
2024-04-05T04:57:17.575Z,99709.29
2024-04-05T04:59:44.096Z,99713.53
2024-04-05T05:02:10.840Z,99714.44
2024-04-05T05:04:37.271Z,99718.52
2024-04-05T05:07:04.322Z,99721.53
2024-04-05T05:09:30.775Z,99720.82
2024-04-05T05:11:57.412Z,99727.50
2024-04-05T05:14:24.723Z,99733.50
2024-04-05T05:16:51.132Z,99732.04
2024-04-05T05:19:17.616Z,99728.59
2024-04-05T05:21:44.660Z,99727.98
2024-04-05T05:24:11.339Z,99725.45
2024-04-05T05:26:37.847Z,99723.65
2024-04-05T05:29:05.194Z,99724.55
2024-04-05T05:31:31.654Z,99723.23
2024-04-05T05:33:58.566Z,99726.36
2024-04-05T05:36:24.937Z,99724.16
2024-04-05T05:38:51.302Z,99724.94
2024-04-05T05:41:18.179Z,99719.99
2024-04-05T05:43:45.350Z,99722.18
2024-04-05T05:46:11.868Z,99721.58
2024-04-05T05:48:38.878Z,99720.10
2024-04-05T05:51:05.773Z,99727.21
2024-04-05T05:53:32.228Z,99739.68
2024-04-05T05:56:01.251Z,99740.15
2024-04-05T05:58:29.254Z,99745.19
2024-04-05T06:00:55.862Z,99750.66
2024-04-05T06:03:23.256Z,99752.69
2024-04-05T06:05:55.777Z,99760.41
2024-04-05T06:08:22.365Z,99765.31
2024-04-05T06:10:58.588Z,99776.40
2024-04-05T06:13:26.019Z,99778.61
2024-04-05T06:15:58.458Z,99790.83
2024-04-05T06:18:25.515Z,99796.98
2024-04-05T06:20:57.207Z,99800.91
2024-04-05T06:23:24.143Z,99803.64
2024-04-05T06:25:58.649Z,99811.05
2024-04-05T06:28:25.573Z,99816.41
2024-04-05T06:30:52.049Z,99820.86
2024-04-05T06:33:18.546Z,99823.86
2024-04-05T06:35:45.288Z,99828.19
2024-04-05T06:38:11.824Z,99831.30
2024-04-05T06:40:39.743Z,99840.84
2024-04-05T06:43:07.929Z,99835.05
2024-04-05T06:45:34.523Z,99844.41
2024-04-05T06:48:02.638Z,99844.36
2024-04-05T06:50:32.016Z,99843.77
2024-04-05T06:53:00.644Z,99848.99
2024-04-05T06:55:27.723Z,99852.70
2024-04-05T06:57:56.070Z,99853.38
2024-04-05T07:00:23.377Z,99854.38
2024-04-05T07:02:49.911Z,99856.55
2024-04-05T07:05:17.034Z,99860.98
2024-04-05T07:07:43.568Z,99859.52
2024-04-05T07:10:10.931Z,99857.91
2024-04-05T07:12:37.663Z,99856.88
2024-04-05T07:15:06.268Z,99861.77
2024-04-05T07:17:32.739Z,99864.98
2024-04-05T07:20:00.568Z,99865.69
2024-04-05T07:22:28.894Z,99875.27
2024-04-05T07:24:55.785Z,99884.45
2024-04-05T07:27:23.699Z,99874.83
2024-04-05T07:29:50.289Z,99876.23
2024-04-05T07:32:17.482Z,99880.79
2024-04-05T07:34:43.962Z,99886.11
2024-04-05T07:37:11.254Z,99890.64
2024-04-05T07:39:40.415Z,99899.90
2024-04-05T07:42:07.664Z,99904.08
2024-04-05T07:44:34.816Z,99907.99
2024-04-05T07:47:01.264Z,99915.44
2024-04-05T07:49:27.786Z,99916.23
2024-04-05T07:51:54.422Z,99927.30
2024-04-05T07:54:22.191Z,99931.11
2024-04-05T07:56:51.916Z,99932.29
2024-04-05T07:59:23.290Z,99932.00
2024-04-05T08:01:50.411Z,99931.47
2024-04-05T08:04:16.877Z,99929.51
2024-04-05T08:06:43.467Z,99936.12
2024-04-05T08:09:12.769Z,99931.48
2024-04-05T08:11:39.303Z,99936.19
2024-04-05T08:14:05.736Z,99934.70
2024-04-05T08:16:32.270Z,99933.30
2024-04-05T08:18:59.321Z,99941.25
2024-04-05T08:21:25.859Z,99945.51
2024-04-05T08:23:52.334Z,99950.98
2024-04-05T08:26:18.713Z,99948.14
2024-04-05T08:28:45.259Z,99945.98
2024-04-05T08:31:11.807Z,99950.75
2024-04-05T08:33:38.351Z,99953.95
2024-04-05T08:36:05.072Z,99956.17
2024-04-05T08:38:31.489Z,99958.94
2024-04-05T08:40:59.544Z,99966.50
2024-04-05T08:43:32.261Z,99965.73
2024-04-05T08:45:58.795Z,99969.61
2024-04-05T08:48:29.649Z,99968.45
2024-04-05T08:50:56.988Z,99972.58
2024-04-05T08:53:23.635Z,99976.55
2024-04-05T08:55:50.986Z,99977.29
2024-04-05T08:58:18.463Z,99977.95
2024-04-05T09:00:45.286Z,99970.31
2024-04-05T09:03:12.839Z,99977.19
2024-04-05T09:05:39.275Z,99977.63
2024-04-05T09:08:10.391Z,99981.20
2024-04-05T09:10:37.656Z,99983.36
2024-04-05T09:13:06.169Z,99989.70
2024-04-05T09:15:33.716Z,99991.73
2024-04-05T09:18:00.725Z,99991.35
2024-04-05T09:20:31.395Z,99998.54
2024-04-05T09:23:05.531Z,100005.00
2024-04-05T09:25:33.805Z,100005.29
2024-04-05T09:28:13.266Z,100004.89
2024-04-05T09:30:41.913Z,100004.88
2024-04-05T09:33:08.546Z,100006.26
2024-04-05T09:35:39.075Z,100007.02
2024-04-05T09:38:06.184Z,100008.58
2024-04-05T09:40:33.945Z,100007.33
2024-04-05T09:43:02.460Z,100009.27
2024-04-05T09:45:32.390Z,100008.16
2024-04-05T09:47:59.928Z,100009.20
2024-04-05T09:50:27.472Z,100010.53
2024-04-05T09:52:55.460Z,100008.45
2024-04-05T09:55:25.666Z,100001.05
2024-04-05T09:57:52.742Z,100005.10
2024-04-05T10:00:24.916Z,100006.02
2024-04-05T10:02:54.569Z,100006.08
2024-04-05T10:05:29.840Z,100009.90
2024-04-05T10:07:57.241Z,100007.39
2024-04-05T10:10:33.745Z,100007.23
2024-04-05T10:13:10.665Z,100010.14
2024-04-05T10:15:37.198Z,100016.48
2024-04-05T10:18:03.647Z,100020.91
2024-04-05T10:20:31.022Z,100025.28
2024-04-05T10:23:04.787Z,100029.71
2024-04-05T10:25:31.484Z,100027.81
2024-04-05T10:27:58.173Z,100019.57
2024-04-05T10:30:25.233Z,100017.85
2024-04-05T10:33:01.202Z,100008.95
2024-04-05T10:35:28.345Z,100007.45
2024-04-05T10:38:14.142Z,100000.33
2024-04-05T10:40:46.493Z,100008.86
2024-04-05T10:43:14.541Z,100005.80
2024-04-05T10:45:42.171Z,100013.73
2024-04-05T10:48:11.833Z,100014.35
2024-04-05T10:50:41.553Z,100010.40
2024-04-05T10:53:09.101Z,100009.58
2024-04-05T10:55:37.658Z,100013.55
2024-04-05T10:58:08.899Z,100013.95
2024-04-05T11:00:37.534Z,100012.19
2024-04-05T11:03:04.972Z,100017.14
2024-04-05T11:05:31.511Z,100022.50
2024-04-05T11:08:05.187Z,100022.52
2024-04-05T11:10:35.652Z,100027.99
2024-04-05T11:13:02.586Z,100028.60
2024-04-05T11:15:29.123Z,100033.63
2024-04-05T11:18:04.754Z,100037.23
2024-04-05T11:20:32.947Z,100032.70
2024-04-05T11:23:03.376Z,100030.21
2024-04-05T11:25:30.115Z,100022.45
2024-04-05T11:27:56.461Z,100025.03
2024-04-05T11:30:23.404Z,100028.24
2024-04-05T11:32:49.930Z,100028.13
2024-04-05T11:35:16.668Z,100029.27
2024-04-05T11:37:47.362Z,100025.59
2024-04-05T11:40:23.032Z,100032.89
2024-04-05T11:42:55.832Z,100031.95
2024-04-05T11:45:22.315Z,100033.34
2024-04-05T11:47:48.808Z,100039.48
2024-04-05T11:50:15.314Z,100038.57
2024-04-05T11:52:41.903Z,100036.96
2024-04-05T11:55:09.333Z,100031.36
2024-04-05T11:57:36.388Z,100031.68
2024-04-05T12:00:05.815Z,100037.58
2024-04-05T12:02:40.200Z,100031.18
2024-04-05T12:05:08.682Z,100028.11
2024-04-05T12:07:35.441Z,100024.84
2024-04-05T12:10:02.017Z,100024.76
2024-04-05T12:12:29.789Z,100029.48
2024-04-05T12:14:56.566Z,100028.68
2024-04-05T12:17:23.715Z,100031.77
2024-04-05T12:19:51.131Z,100035.11
2024-04-05T12:22:17.635Z,100038.84
2024-04-05T12:24:47.937Z,100037.35
2024-04-05T12:27:16.924Z,100042.69
2024-04-05T12:29:47.252Z,100050.27
2024-04-05T12:32:13.999Z,100051.36
2024-04-05T12:34:40.535Z,100052.47
2024-04-05T12:37:10.464Z,100051.74
2024-04-05T12:39:37.321Z,100045.14
2024-04-05T12:42:04.146Z,100039.55
2024-04-05T12:44:31.373Z,100041.84
2024-04-05T12:46:59.368Z,100042.31
2024-04-05T12:49:26.190Z,100046.84
2024-04-05T12:51:54.098Z,100046.36
2024-04-05T12:54:20.921Z,100044.46
2024-04-05T12:56:48.221Z,100045.55
2024-04-05T12:59:15.719Z,100046.20
2024-04-05T13:01:42.406Z,100044.16
2024-04-05T13:04:09.286Z,100041.99
2024-04-05T13:06:38.100Z,100038.85
2024-04-05T13:09:04.754Z,100037.93
2024-04-05T13:11:31.477Z,100034.30
2024-04-05T13:13:57.917Z,100031.40
2024-04-05T13:16:24.446Z,100026.02
2024-04-05T13:18:52.318Z,100019.98
2024-04-05T13:21:19.048Z,100024.48
2024-04-05T13:23:47.667Z,100027.46
2024-04-05T13:26:17.319Z,100033.55
2024-04-05T13:28:45.515Z,100027.67
2024-04-05T13:31:12.066Z,100029.77
2024-04-05T13:33:39.078Z,100028.65
2024-04-05T13:36:13.389Z,100021.84
2024-04-05T13:38:40.799Z,100020.23
2024-04-05T13:41:08.312Z,100016.93
2024-04-05T13:43:34.996Z,100014.73
2024-04-05T13:46:13.594Z,100016.30
2024-04-05T13:48:43.924Z,100015.75
2024-04-05T13:51:10.569Z,100009.36
2024-04-05T13:53:38.677Z,100007.02
2024-04-05T13:56:06.631Z,100006.63
2024-04-05T13:58:33.888Z,100005.60
2024-04-05T14:01:01.821Z,100006.90
2024-04-05T14:03:28.378Z,100007.55
2024-04-05T14:05:55.659Z,100003.70
2024-04-05T14:08:22.348Z,100001.95
2024-04-05T14:10:49.500Z,100004.70
2024-04-05T14:13:16.499Z,100004.97
2024-04-05T14:15:43.309Z,100011.35
2024-04-05T14:18:13.403Z,100016.70
2024-04-05T14:20:41.277Z,100017.02
2024-04-05T14:23:09.178Z,100013.02
2024-04-05T14:25:36.002Z,100007.38
2024-04-05T14:28:02.450Z,100009.82
2024-04-05T14:30:31.262Z,100006.02
2024-04-05T14:32:57.681Z,100006.88
2024-04-05T14:35:24.175Z,99997.98
2024-04-05T14:37:51.636Z,99992.45
2024-04-05T14:40:18.479Z,99984.69
2024-04-05T14:42:44.910Z,99984.15
2024-04-05T14:45:12.652Z,99981.05
2024-04-05T14:47:39.211Z,99979.83
2024-04-05T14:50:09.158Z,99978.95
2024-04-05T14:52:36.787Z,99979.73
2024-04-05T14:55:05.918Z,99974.42
2024-04-05T14:57:33.282Z,99974.69
2024-04-05T14:59:59.878Z,99977.41
2024-04-05T15:02:26.549Z,99976.82
2024-04-05T15:04:53.732Z,99978.38
2024-04-05T15:07:20.271Z,99975.52
2024-04-05T15:09:46.840Z,99973.11
2024-04-05T15:12:13.585Z,99978.30
2024-04-05T15:14:40.217Z,99985.55
2024-04-05T15:17:07.673Z,99991.96
2024-04-05T15:19:34.454Z,99992.21
2024-04-05T15:22:01.463Z,99989.15
2024-04-05T15:24:28.075Z,99974.72
2024-04-05T15:26:57.609Z,99974.42
2024-04-05T15:29:24.550Z,99974.57
2024-04-05T15:31:50.987Z,99973.89
2024-04-05T15:34:18.888Z,99975.38
2024-04-05T15:36:46.445Z,99971.80
2024-04-05T15:39:14.705Z,99968.67
2024-04-05T15:41:41.228Z,99963.80
2024-04-05T15:44:07.936Z,99960.15
2024-04-05T15:46:35.528Z,99959.33
2024-04-05T15:49:01.963Z,99957.64
2024-04-05T15:51:28.499Z,99954.36
2024-04-05T15:53:59.967Z,99954.59
2024-04-05T15:56:27.145Z,99946.55
2024-04-05T15:58:53.639Z,99946.69
2024-04-05T16:01:20.331Z,99941.36
2024-04-05T16:03:48.880Z,99947.91
2024-04-05T16:06:15.575Z,99946.60
2024-04-05T16:08:43.094Z,99947.45
2024-04-05T16:11:11.784Z,99942.85
2024-04-05T16:13:38.563Z,99938.95
2024-04-05T16:16:06.653Z,99934.94
2024-04-05T16:18:37.730Z,99933.17
2024-04-05T16:21:10.326Z,99934.63
2024-04-05T16:23:37.228Z,99940.84
2024-04-05T16:26:05.387Z,99935.30
2024-04-05T16:28:31.935Z,99933.16
2024-04-05T16:30:58.570Z,99938.98
2024-04-05T16:33:25.523Z,99945.84
2024-04-05T16:35:52.560Z,99945.84
2024-04-05T16:38:22.607Z,99947.23
2024-04-05T16:40:49.484Z,99952.25
2024-04-05T16:43:16.269Z,99952.85
2024-04-05T16:45:43.937Z,99949.38
2024-04-05T16:48:10.759Z,99949.63
2024-04-05T16:50:41.614Z,99954.34
2024-04-05T16:53:10.948Z,99962.25
2024-04-05T16:55:37.594Z,99963.51
2024-04-05T16:58:04.801Z,99967.05
2024-04-05T17:00:31.646Z,99961.66
2024-04-05T17:03:06.071Z,99966.29
2024-04-05T17:05:34.034Z,99970.13
2024-04-05T17:08:02.527Z,99965.68
2024-04-05T17:10:38.489Z,99960.31
2024-04-05T17:13:08.514Z,99950.87
2024-04-05T17:15:35.044Z,99944.77
2024-04-05T17:18:01.793Z,99936.29
2024-04-05T17:20:28.414Z,99935.49
2024-04-05T17:22:55.910Z,99931.89
2024-04-05T17:25:22.933Z,99934.53
2024-04-05T17:27:50.563Z,99936.09
2024-04-05T17:30:17.663Z,99935.95
2024-04-05T17:32:45.166Z,99934.23
2024-04-05T17:35:11.735Z,99941.73
2024-04-05T17:37:38.198Z,99942.96
2024-04-05T17:40:06.227Z,99939.60
2024-04-05T17:42:34.428Z,99937.98
2024-04-05T17:45:00.864Z,99934.47
2024-04-05T17:47:27.338Z,99928.06
2024-04-05T17:49:53.823Z,99922.70
2024-04-05T17:52:20.596Z,99920.58
2024-04-05T17:54:47.703Z,99918.13
2024-04-05T17:57:14.126Z,99917.41
2024-04-05T17:59:40.566Z,99915.45
2024-04-05T18:02:07.448Z,99914.42
2024-04-05T18:04:35.784Z,99907.52
2024-04-05T18:07:02.305Z,99908.39
2024-04-05T18:09:29.162Z,99917.52
2024-04-05T18:11:55.696Z,99927.67
2024-04-05T18:14:22.341Z,99930.22
2024-04-05T18:16:48.880Z,99937.38
2024-04-05T18:19:18.377Z,99940.02
2024-04-05T18:21:45.036Z,99939.89
2024-04-05T18:24:12.003Z,99936.23
2024-04-05T18:26:38.433Z,99936.17
2024-04-05T18:29:04.943Z,99938.40
2024-04-05T18:31:31.669Z,99934.52
2024-04-05T18:33:59.267Z,99940.23
2024-04-05T18:36:25.888Z,99933.72
2024-04-05T18:38:57.169Z,99928.23
2024-04-05T18:41:25.266Z,99928.73
2024-04-05T18:43:51.938Z,99928.88
2024-04-05T18:46:19.838Z,99932.48
2024-04-05T18:48:46.951Z,99932.70
2024-04-05T18:51:18.400Z,99929.95
2024-04-05T18:53:44.941Z,99935.83
2024-04-05T18:56:15.634Z,99931.60
2024-04-05T18:58:42.308Z,99928.92
2024-04-05T19:01:09.966Z,99934.25
2024-04-05T19:03:42.138Z,99931.39
2024-04-05T19:06:11.274Z,99931.51
2024-04-05T19:08:38.287Z,99940.86
2024-04-05T19:11:05.876Z,99931.58
2024-04-05T19:13:37.293Z,99932.68
2024-04-05T19:16:04.986Z,99929.77
2024-04-05T19:18:31.657Z,99931.80
2024-04-05T19:21:01.584Z,99931.86
2024-04-05T19:23:30.512Z,99924.77
2024-04-05T19:25:57.349Z,99926.30
2024-04-05T19:28:24.129Z,99927.95
2024-04-05T19:30:56.128Z,99921.50
2024-04-05T19:33:23.491Z,99913.91
2024-04-05T19:35:50.255Z,99913.23
2024-04-05T19:38:18.458Z,99911.90
2024-04-05T19:40:49.060Z,99897.78
2024-04-05T19:43:15.900Z,99893.18
2024-04-05T19:45:43.870Z,99891.77
2024-04-05T19:48:11.800Z,99893.55
2024-04-05T19:50:38.354Z,99886.98
2024-04-05T19:53:07.312Z,99886.53
2024-04-05T19:55:34.110Z,99882.39
2024-04-05T19:58:04.057Z,99889.44
2024-04-05T20:00:35.086Z,99897.02
2024-04-05T20:03:01.559Z,99894.69
2024-04-05T20:05:28.108Z,99888.67
2024-04-05T20:07:55.391Z,99884.83
2024-04-05T20:10:21.921Z,99878.36
2024-04-05T20:12:48.771Z,99873.43
2024-04-05T20:15:15.650Z,99874.22
2024-04-05T20:17:42.026Z,99871.33
2024-04-05T20:20:08.333Z,99865.27
2024-04-05T20:22:34.917Z,99866.08
2024-04-05T20:25:01.549Z,99860.38
2024-04-05T20:27:28.496Z,99859.44
2024-04-05T20:30:12.509Z,99862.08
2024-04-05T20:32:39.180Z,99859.65
2024-04-05T20:35:07.507Z,99854.95
2024-04-05T20:37:34.745Z,99850.85
2024-04-05T20:40:02.538Z,99851.84
2024-04-05T20:42:28.907Z,99847.19
2024-04-05T20:44:56.366Z,99846.06
2024-04-05T20:47:22.920Z,99843.98
2024-04-05T20:49:49.336Z,99835.77
2024-04-05T20:52:16.105Z,99832.27
2024-04-05T20:54:42.851Z,99824.39
2024-04-05T20:57:10.444Z,99825.56
2024-04-05T20:59:37.660Z,99819.67
2024-04-05T21:02:04.367Z,99820.08
2024-04-05T21:04:31.371Z,99819.33
2024-04-05T21:06:58.377Z,99815.30
2024-04-05T21:09:26.033Z,99812.16
2024-04-05T21:11:52.593Z,99811.81
2024-04-05T21:14:19.226Z,99795.91
2024-04-05T21:16:46.179Z,99792.96
2024-04-05T21:19:12.689Z,99789.84
2024-04-05T21:21:39.239Z,99786.02
2024-04-05T21:24:06.245Z,99783.44
2024-04-05T21:26:33.102Z,99774.90
2024-04-05T21:29:00.032Z,99765.50
2024-04-05T21:31:26.716Z,99762.70
2024-04-05T21:33:53.536Z,99762.73
2024-04-05T21:36:20.698Z,99767.08
2024-04-05T21:38:48.042Z,99755.58
2024-04-05T21:41:14.785Z,99762.23
2024-04-05T21:43:41.530Z,99762.47
2024-04-05T21:46:08.551Z,99759.92
2024-04-05T21:48:36.253Z,99762.27
2024-04-05T21:53:33.303Z,99753.29
2024-04-05T21:56:00.139Z,99738.39
2024-04-05T21:58:28.827Z,99739.92
2024-04-05T22:00:55.506Z,99757.85
2024-04-05T22:03:22.202Z,99766.30
2024-04-05T22:05:48.742Z,99758.62
2024-04-05T22:08:15.337Z,99755.83
2024-04-05T22:10:41.919Z,99744.55
2024-04-05T22:13:08.662Z,99742.98
2024-04-05T22:15:35.496Z,99734.90
2024-04-05T22:18:02.065Z,99732.09
2024-04-05T22:20:28.556Z,99720.56
2024-04-05T22:22:55.111Z,99720.96
2024-04-05T22:25:24.511Z,99708.13
2024-04-05T22:27:51.009Z,99707.61
2024-04-05T22:30:18.965Z,99704.41
2024-04-05T22:32:45.354Z,99705.20
2024-04-05T22:35:11.314Z,99698.62
2024-04-05T22:37:37.861Z,99700.02
2024-04-05T22:40:02.750Z,99704.98
2024-04-05T22:42:29.721Z,99711.90
2024-04-05T22:44:56.390Z,99714.21
2024-04-05T22:47:21.340Z,99714.33
2024-04-05T22:49:47.923Z,99715.94
2024-04-05T22:52:14.358Z,99708.78
2024-04-05T22:54:40.861Z,99707.20
2024-04-05T22:57:07.832Z,99705.41
2024-04-05T22:59:34.205Z,99704.81
2024-04-05T23:02:00.707Z,99691.64
2024-04-05T23:04:27.395Z,99684.33
2024-04-05T23:06:53.734Z,99674.48
2024-04-05T23:09:20.210Z,99665.56
2024-04-05T23:11:46.520Z,99646.70
2024-04-05T23:14:11.442Z,99636.52
2024-04-05T23:16:37.979Z,99631.54
2024-04-05T23:19:04.328Z,99621.69
2024-04-05T23:21:30.687Z,99620.33
2024-04-05T23:23:55.597Z,99627.31
2024-04-05T23:26:25.130Z,99620.92
2024-04-05T23:28:51.575Z,99621.34
2024-04-05T23:31:17.925Z,99620.93
2024-04-05T23:33:42.842Z,99621.77
2024-04-05T23:36:10.004Z,99622.17
2024-04-05T23:38:36.640Z,99623.06
2024-04-05T23:41:02.992Z,99630.17
2024-04-05T23:43:28.482Z,99633.35
2024-04-05T23:45:54.932Z,99641.63
2024-04-05T23:48:19.880Z,99636.94
2024-04-05T23:50:46.204Z,99648.41
2024-04-05T23:53:11.036Z,99657.25
2024-04-05T23:55:38.308Z,99674.84
2024-04-05T23:58:05.545Z,99680.08
